createdAt,value
2023-04-19T00:00:00.844Z,45.44
2023-04-19T00:02:31.698Z,45.53
2023-04-19T00:05:02.070Z,45.45
2023-04-19T00:07:30.084Z,45.61
2023-04-19T00:09:58.312Z,45.92
2023-04-19T00:12:26.207Z,45.82
2023-04-19T00:14:54.040Z,46.03
2023-04-19T00:17:23.095Z,46.02
2023-04-19T00:19:51.228Z,46.11
2023-04-19T00:22:19.165Z,46.11
2023-04-19T00:24:46.973Z,46.11
2023-04-19T00:27:14.813Z,45.85
2023-04-19T00:29:43.150Z,46.19
2023-04-19T00:32:11.531Z,46.16
2023-04-19T00:34:39.576Z,46.17
2023-04-19T00:37:08.999Z,46.42
2023-04-19T00:39:37.506Z,46.42
2023-04-19T00:42:08.035Z,46.35
2023-04-19T00:44:35.908Z,46.41
2023-04-19T00:47:04.267Z,46.69
2023-04-19T00:49:33.377Z,46.47
2023-04-19T00:52:03.344Z,46.36
2023-04-19T00:54:31.679Z,46.63
2023-04-19T00:56:59.525Z,46.39
2023-04-19T00:59:27.208Z,46.50
2023-04-19T01:01:55.429Z,46.54
2023-04-19T01:04:38.788Z,46.53
2023-04-19T01:07:07.777Z,46.17
2023-04-19T01:09:36.679Z,46.42
2023-04-19T01:12:04.981Z,46.24
2023-04-19T01:14:32.773Z,46.14
2023-04-19T01:17:00.700Z,45.91
2023-04-19T01:19:28.723Z,46.27
2023-04-19T01:21:58.469Z,46.04
2023-04-19T01:24:26.859Z,45.81
2023-04-19T01:26:54.759Z,45.81
2023-04-19T01:29:22.528Z,46.04
2023-04-19T01:31:54.165Z,45.67
2023-04-19T01:34:23.444Z,45.82
2023-04-19T01:36:51.331Z,45.56
2023-04-19T01:39:19.586Z,45.70
2023-04-19T01:41:47.568Z,45.52
2023-04-19T01:44:15.580Z,45.96
2023-04-19T01:46:43.661Z,45.58
2023-04-19T01:49:11.637Z,45.84
2023-04-19T01:51:39.689Z,45.63
2023-04-19T01:54:10.356Z,45.70
2023-04-19T01:56:38.211Z,45.89
2023-04-19T01:59:06.254Z,45.73
2023-04-19T02:01:34.000Z,45.54
2023-04-19T02:04:03.898Z,46.01
2023-04-19T02:06:32.720Z,45.66
2023-04-19T02:09:01.778Z,45.87
2023-04-19T02:11:29.698Z,45.85
2023-04-19T02:13:57.625Z,45.96
2023-04-19T02:16:25.613Z,45.67
2023-04-19T02:18:53.650Z,45.73
2023-04-19T02:21:21.776Z,45.82
2023-04-19T02:23:49.782Z,45.65
2023-04-19T02:26:17.625Z,45.66
2023-04-19T02:28:45.417Z,45.82
2023-04-19T02:31:14.107Z,45.62
2023-04-19T02:33:41.905Z,45.92
2023-04-19T02:36:11.041Z,45.64
2023-04-19T02:38:39.888Z,45.69
2023-04-19T02:41:07.818Z,45.94
2023-04-19T02:43:39.516Z,45.99
2023-04-19T02:46:07.735Z,45.92
2023-04-19T02:48:35.958Z,45.75
2023-04-19T02:51:03.817Z,45.46
2023-04-19T02:53:32.569Z,45.54
2023-04-19T02:56:01.668Z,45.42
2023-04-19T02:58:29.695Z,44.86
2023-04-19T03:01:04.876Z,45.20
2023-04-19T03:03:32.726Z,44.86
2023-04-19T03:06:00.728Z,44.96
2023-04-19T03:08:29.660Z,44.82
2023-04-19T03:10:57.672Z,44.98
2023-04-19T03:13:25.742Z,44.55
2023-04-19T03:15:53.555Z,44.42
2023-04-19T03:18:25.197Z,44.43
2023-04-19T03:20:55.954Z,44.20
2023-04-19T03:23:23.768Z,44.12
2023-04-19T03:25:51.863Z,44.20
2023-04-19T03:28:35.211Z,43.82
2023-04-19T03:31:21.295Z,43.84
2023-04-19T03:33:51.515Z,43.54
2023-04-19T03:36:23.352Z,43.37
2023-04-19T03:38:51.326Z,43.28
2023-04-19T03:41:21.057Z,43.08
2023-04-19T03:43:52.347Z,42.75
2023-04-19T03:46:20.649Z,42.53
2023-04-19T03:48:48.573Z,42.48
2023-04-19T03:51:16.747Z,42.17
2023-04-19T03:53:45.377Z,42.18
2023-04-19T03:56:13.246Z,42.03
2023-04-19T03:58:42.704Z,41.91
2023-04-19T04:01:22.210Z,41.74
2023-04-19T04:03:52.031Z,41.79
2023-04-19T04:06:20.320Z,41.81
2023-04-19T04:08:48.720Z,41.25
2023-04-19T04:11:16.862Z,41.42
2023-04-19T04:13:47.527Z,41.57
2023-04-19T04:16:19.679Z,41.23
2023-04-19T04:18:48.533Z,41.10
2023-04-19T04:21:17.000Z,40.91
2023-04-19T04:23:50.085Z,41.16
2023-04-19T04:26:41.507Z,41.40
2023-04-19T04:29:39.466Z,40.91
2023-04-19T04:32:10.689Z,41.12
2023-04-19T04:34:43.090Z,41.11
2023-04-19T04:37:16.536Z,40.69
2023-04-19T04:39:44.542Z,41.02
2023-04-19T04:42:13.807Z,40.41
2023-04-19T04:44:42.337Z,40.71
2023-04-19T04:47:13.780Z,41.00
2023-04-19T04:49:48.318Z,41.01
2023-04-19T04:52:17.500Z,40.31
2023-04-19T04:54:58.242Z,40.58
2023-04-19T04:57:32.171Z,40.86
2023-04-19T05:00:01.640Z,40.78
2023-04-19T05:02:36.526Z,40.92
2023-04-19T05:05:04.825Z,40.77
2023-04-19T05:07:33.773Z,40.79
2023-04-19T05:10:04.605Z,41.16
2023-04-19T05:12:42.239Z,41.50
2023-04-19T05:15:12.188Z,41.77
2023-04-19T05:17:44.681Z,41.57
2023-04-19T05:20:14.233Z,41.86
2023-04-19T05:22:43.438Z,42.10
2023-04-19T05:25:12.844Z,41.96
2023-04-19T05:27:41.152Z,41.89
2023-04-19T05:30:10.214Z,40.91
2023-04-19T05:32:42.402Z,40.38
2023-04-19T05:35:12.363Z,40.64
2023-04-19T05:37:44.468Z,40.95
2023-04-19T05:40:14.199Z,41.24
2023-04-19T05:42:42.950Z,41.83
2023-04-19T05:45:15.077Z,41.93
2023-04-19T05:47:45.706Z,41.79
2023-04-19T05:50:37.205Z,42.11
2023-04-19T05:53:28.076Z,41.42
2023-04-19T05:55:58.333Z,40.69
2023-04-19T05:58:27.384Z,41.07
2023-04-19T06:00:55.793Z,41.32
2023-04-19T06:03:27.747Z,41.44
2023-04-19T06:06:01.256Z,41.15
2023-04-19T06:08:29.258Z,40.70
2023-04-19T06:11:02.109Z,40.66
2023-04-19T06:13:33.743Z,40.80
2023-04-19T06:16:01.824Z,40.62
2023-04-19T06:18:30.825Z,40.62
2023-04-19T06:20:58.576Z,40.40
2023-04-19T06:23:27.171Z,39.89
2023-04-19T06:25:55.156Z,39.09
2023-04-19T06:28:23.052Z,39.82
2023-04-19T06:30:50.834Z,39.73
2023-04-19T06:33:18.802Z,39.75
2023-04-19T06:35:46.561Z,39.44
2023-04-19T06:38:14.200Z,39.29
2023-04-19T06:40:42.161Z,39.13
2023-04-19T06:43:10.225Z,39.08
2023-04-19T06:45:39.313Z,38.80
2023-04-19T06:48:07.066Z,39.36
2023-04-19T06:50:35.126Z,38.78
2023-04-19T06:53:04.724Z,39.14
2023-04-19T06:55:32.802Z,39.24
2023-04-19T06:58:04.267Z,39.31
2023-04-19T07:00:32.301Z,39.55
2023-04-19T07:03:00.929Z,39.65
2023-04-19T07:05:30.054Z,39.32
2023-04-19T07:07:59.504Z,39.33
2023-04-19T07:10:27.336Z,39.48
2023-04-19T07:12:56.006Z,39.72
2023-04-19T07:15:23.894Z,39.86
2023-04-19T07:17:53.709Z,39.94
2023-04-19T07:20:21.915Z,40.14
2023-04-19T07:22:49.609Z,40.32
2023-04-19T07:25:17.654Z,40.55
2023-04-19T07:27:45.719Z,41.79
2023-04-19T07:30:13.585Z,40.86
2023-04-19T07:32:42.119Z,40.75
2023-04-19T07:35:12.536Z,40.10
2023-04-19T07:37:40.642Z,40.69
2023-04-19T07:40:09.413Z,40.91
2023-04-19T07:42:42.197Z,40.31
2023-04-19T07:45:10.642Z,39.64
2023-04-19T07:47:38.473Z,39.42
2023-04-19T07:50:07.816Z,39.39
2023-04-19T07:52:35.542Z,39.45
2023-04-19T07:55:03.736Z,39.36
2023-04-19T07:57:31.979Z,39.06
2023-04-19T07:59:59.793Z,39.60
2023-04-19T08:02:28.585Z,40.91
2023-04-19T08:04:58.098Z,40.43
2023-04-19T08:07:28.786Z,39.93
2023-04-19T08:09:58.537Z,39.72
2023-04-19T08:12:35.085Z,39.78
2023-04-19T08:15:29.603Z,41.13
2023-04-19T08:17:57.281Z,41.29
2023-04-19T08:20:25.492Z,41.44
2023-04-19T08:22:55.124Z,40.50
2023-04-19T08:25:27.003Z,39.90
2023-04-19T08:27:55.584Z,39.40
2023-04-19T08:30:24.103Z,40.00
2023-04-19T08:32:52.731Z,39.34
2023-04-19T08:35:22.400Z,39.56
2023-04-19T08:37:50.581Z,40.02
2023-04-19T08:40:18.548Z,39.07
2023-04-19T08:42:46.486Z,39.78
2023-04-19T08:45:29.378Z,38.85
2023-04-19T08:48:01.740Z,38.09
2023-04-19T08:50:35.922Z,38.48
2023-04-19T08:55:58.474Z,37.09
2023-04-19T08:58:50.362Z,36.75
2023-04-19T09:04:04.986Z,35.62
2023-04-19T09:06:39.267Z,34.40
2023-04-19T09:11:50.512Z,34.34
2023-04-19T09:14:21.307Z,34.28
2023-04-19T09:16:49.690Z,34.64
2023-04-19T09:19:24.237Z,35.00
2023-04-19T09:21:55.103Z,34.19
2023-04-19T09:27:17.125Z,33.70
2023-04-19T09:29:56.892Z,34.15
2023-04-19T09:32:25.424Z,34.15
2023-04-19T09:34:59.166Z,33.28
2023-04-19T09:39:58.384Z,34.31
2023-04-19T09:43:05.410Z,33.16
2023-04-19T09:45:44.402Z,33.56
2023-04-19T09:48:13.605Z,34.17
2023-04-19T09:51:07.303Z,33.31
2023-04-19T09:53:41.846Z,33.57
2023-04-19T09:56:13.106Z,33.95
2023-04-19T09:58:49.960Z,33.21
2023-04-19T10:01:22.482Z,32.39
2023-04-19T10:03:52.119Z,32.75
2023-04-19T10:08:55.202Z,32.52
2023-04-19T10:11:23.800Z,32.98
2023-04-19T10:13:57.593Z,33.52
2023-04-19T10:16:26.612Z,33.12
2023-04-19T10:18:57.513Z,32.32
2023-04-19T10:21:28.074Z,32.46
2023-04-19T10:23:57.603Z,32.54
2023-04-19T10:26:25.898Z,32.27
2023-04-19T10:28:59.950Z,32.66
2023-04-19T10:31:30.588Z,33.12
2023-04-19T10:33:59.167Z,32.61
2023-04-19T10:36:28.166Z,32.78
2023-04-19T10:38:57.052Z,31.94
2023-04-19T10:41:44.992Z,32.47
2023-04-19T10:44:12.754Z,32.83
2023-04-19T10:46:41.056Z,33.04
2023-04-19T10:49:10.314Z,32.68
2023-04-19T10:51:39.738Z,32.54
2023-04-19T10:54:28.767Z,32.21
2023-04-19T10:57:05.842Z,32.09
2023-04-19T10:59:37.244Z,31.29
2023-04-19T11:02:33.506Z,30.60
2023-04-19T11:05:02.792Z,31.72
2023-04-19T11:07:37.316Z,31.51
2023-04-19T11:10:05.562Z,31.29
2023-04-19T11:12:34.250Z,31.58
2023-04-19T11:15:03.006Z,31.41
2023-04-19T11:17:32.866Z,31.39
2023-04-19T11:20:10.329Z,31.28
2023-04-19T11:22:40.684Z,31.89
2023-04-19T11:25:12.950Z,32.06
2023-04-19T11:27:44.867Z,31.92
2023-04-19T11:30:14.104Z,32.39
2023-04-19T11:33:03.674Z,32.48
2023-04-19T11:35:31.765Z,32.76
2023-04-19T11:38:00.132Z,33.12
2023-04-19T11:40:27.967Z,33.06
2023-04-19T11:43:00.809Z,33.16
2023-04-19T11:45:35.384Z,33.40
2023-04-19T11:48:06.250Z,34.01
2023-04-19T11:50:42.251Z,34.49
2023-04-19T11:53:32.484Z,34.71
2023-04-19T11:56:07.917Z,35.53
2023-04-19T11:58:51.607Z,35.58
2023-04-19T12:01:21.546Z,35.47
2023-04-19T12:03:51.272Z,34.91
2023-04-19T12:06:39.684Z,34.74
2023-04-19T12:09:11.473Z,34.90
2023-04-19T12:11:50.402Z,34.28
2023-04-19T12:14:23.290Z,34.61
2023-04-19T12:17:12.130Z,33.98
2023-04-19T12:19:46.351Z,34.41
2023-04-19T12:22:16.344Z,34.24
2023-04-19T12:24:44.184Z,34.42
2023-04-19T12:27:13.256Z,34.74
2023-04-19T12:29:41.170Z,34.71
2023-04-19T12:32:11.069Z,35.01
2023-04-19T12:34:39.012Z,35.16
2023-04-19T12:37:07.095Z,34.99
2023-04-19T12:39:35.009Z,34.28
2023-04-19T12:42:03.059Z,34.72
2023-04-19T12:44:30.927Z,34.44
2023-04-19T12:46:58.890Z,34.56
2023-04-19T12:49:26.996Z,34.57
2023-04-19T12:51:57.250Z,33.89
2023-04-19T12:54:25.538Z,34.07
2023-04-19T12:56:54.346Z,34.21
2023-04-19T12:59:22.474Z,33.73
2023-04-19T13:01:51.421Z,33.66
2023-04-19T13:04:19.600Z,33.59
2023-04-19T13:06:50.672Z,32.86
2023-04-19T13:09:18.551Z,33.34
2023-04-19T13:11:46.353Z,33.01
2023-04-19T13:14:14.395Z,32.73
2023-04-19T13:16:42.795Z,33.06
2023-04-19T13:19:11.248Z,33.11
2023-04-19T13:21:40.176Z,33.06
2023-04-19T13:24:08.782Z,32.91
2023-04-19T13:26:37.525Z,32.97
2023-04-19T13:29:05.558Z,33.29
2023-04-19T13:31:35.051Z,32.58
2023-04-19T13:34:03.081Z,32.67
2023-04-19T13:36:31.541Z,33.06
2023-04-19T13:39:00.272Z,33.04
2023-04-19T13:41:28.512Z,32.92
2023-04-19T13:43:56.402Z,33.20
2023-04-19T13:46:24.430Z,32.89
2023-04-19T13:48:55.476Z,33.25
2023-04-19T13:51:23.230Z,33.02
2023-04-19T13:53:51.381Z,32.90
2023-04-19T13:56:19.287Z,33.17
2023-04-19T13:58:47.146Z,32.90
2023-04-19T14:01:15.996Z,32.83
2023-04-19T14:03:44.055Z,32.91
2023-04-19T14:06:12.069Z,32.96
2023-04-19T14:08:39.820Z,32.81
2023-04-19T14:11:07.505Z,33.17
2023-04-19T14:13:35.366Z,33.19
2023-04-19T14:16:04.422Z,32.92
2023-04-19T14:18:32.956Z,32.91
2023-04-19T14:21:01.770Z,32.58
2023-04-19T14:23:31.037Z,33.11
2023-04-19T14:25:59.030Z,33.33
2023-04-19T14:28:27.104Z,32.72
2023-04-19T14:30:55.794Z,33.20
2023-04-19T14:33:23.621Z,32.72
2023-04-19T14:35:51.700Z,32.48
2023-04-19T14:38:19.669Z,32.15
2023-04-19T14:40:47.572Z,32.24
2023-04-19T14:43:19.161Z,32.39
2023-04-19T14:45:49.871Z,32.17
2023-04-19T14:48:21.416Z,32.22
2023-04-19T14:50:50.270Z,32.15
2023-04-19T14:53:18.303Z,32.41
2023-04-19T14:55:45.977Z,32.22
2023-04-19T14:58:13.789Z,32.35
2023-04-19T15:00:43.275Z,32.57
2023-04-19T15:03:11.173Z,32.37
2023-04-19T15:05:41.103Z,32.15
2023-04-19T15:08:17.374Z,32.08
2023-04-19T15:10:56.083Z,31.69
2023-04-19T15:13:23.975Z,31.91
2023-04-19T15:15:51.806Z,32.24
2023-04-19T15:18:20.973Z,31.88
2023-04-19T15:20:48.789Z,32.00
2023-04-19T15:23:16.916Z,31.89
2023-04-19T15:25:44.903Z,31.76
2023-04-19T15:28:12.652Z,31.55
2023-04-19T15:30:40.913Z,31.65
2023-04-19T15:33:09.221Z,31.96
2023-04-19T15:35:37.103Z,31.98
2023-04-19T15:38:05.025Z,31.63
2023-04-19T15:40:32.788Z,31.65
2023-04-19T15:43:01.232Z,31.87
2023-04-19T15:45:29.384Z,31.78
2023-04-19T15:47:57.433Z,32.13
2023-04-19T15:50:28.891Z,31.98
2023-04-19T15:53:08.135Z,31.98
2023-04-19T15:55:56.691Z,31.96
2023-04-19T15:58:30.965Z,32.32
2023-04-19T16:00:58.868Z,31.96
2023-04-19T16:03:28.506Z,32.09
2023-04-19T16:05:56.477Z,31.74
2023-04-19T16:08:24.743Z,31.74
2023-04-19T16:10:55.583Z,31.75
2023-04-19T16:13:23.498Z,31.98
2023-04-19T16:15:51.386Z,31.97
2023-04-19T16:18:21.292Z,32.26
2023-04-19T16:20:49.162Z,32.41
2023-04-19T16:23:48.366Z,32.10
2023-04-19T16:26:14.076Z,32.53
2023-04-19T16:28:50.345Z,32.42
2023-04-19T16:31:19.462Z,32.35
2023-04-19T16:33:48.171Z,32.59
2023-04-19T16:36:16.421Z,32.67
2023-04-19T16:38:44.603Z,32.65
2023-04-19T16:41:12.491Z,32.60
2023-04-19T16:43:56.183Z,33.11
2023-04-19T16:46:34.036Z,33.09
2023-04-19T16:49:02.428Z,33.17
2023-04-19T16:51:31.009Z,33.13
2023-04-19T16:54:00.723Z,33.07
2023-04-19T16:56:28.865Z,33.58
2023-04-19T16:58:56.808Z,33.63
2023-04-19T17:01:25.004Z,33.48
2023-04-19T17:03:53.315Z,33.46
2023-04-19T17:06:21.477Z,33.38
2023-04-19T17:08:50.238Z,33.28
2023-04-19T17:11:18.834Z,33.58
2023-04-19T17:13:47.945Z,33.77
2023-04-19T17:16:18.858Z,34.01
2023-04-19T17:18:46.715Z,35.30
2023-04-19T17:21:16.333Z,35.07
2023-04-19T17:23:45.849Z,35.75
2023-04-19T17:26:16.165Z,36.55
2023-04-19T17:28:44.247Z,36.37
2023-04-19T17:31:12.386Z,36.72
2023-04-19T17:33:40.689Z,36.87
2023-04-19T17:36:09.776Z,36.64
2023-04-19T17:38:37.688Z,36.55
2023-04-19T17:41:08.684Z,36.53
2023-04-19T17:43:36.456Z,36.48
2023-04-19T17:46:04.409Z,36.74
2023-04-19T17:48:32.725Z,37.17
2023-04-19T17:51:01.256Z,38.18
2023-04-19T17:53:30.843Z,38.20
2023-04-19T17:55:59.228Z,38.14
2023-04-19T17:58:27.159Z,38.26
2023-04-19T18:00:55.155Z,37.64
2023-04-19T18:03:23.153Z,37.59
2023-04-19T18:05:54.473Z,37.27
2023-04-19T18:08:22.441Z,37.21
2023-04-19T18:10:51.107Z,37.37
2023-04-19T18:13:19.118Z,37.17
2023-04-19T18:15:47.072Z,37.41
2023-04-19T18:18:14.882Z,37.68
2023-04-19T18:20:47.426Z,37.72
2023-04-19T18:23:15.835Z,38.02
2023-04-19T18:25:43.551Z,38.84
2023-04-19T18:28:11.891Z,40.41
2023-04-19T18:30:42.325Z,39.08
2023-04-19T18:33:10.115Z,39.15
2023-04-19T18:35:38.141Z,38.90
2023-04-19T18:38:07.067Z,38.72
2023-04-19T18:40:34.854Z,38.69
2023-04-19T18:43:05.121Z,38.88
2023-04-19T18:45:33.291Z,38.90
2023-04-19T18:48:01.458Z,39.09
2023-04-19T18:50:32.828Z,39.40
2023-04-19T18:53:00.560Z,39.18
2023-04-19T18:55:29.621Z,39.74
2023-04-19T18:57:57.510Z,39.99
2023-04-19T19:00:27.163Z,40.04
2023-04-19T19:02:55.446Z,40.02
2023-04-19T19:05:23.446Z,39.93
2023-04-19T19:07:51.539Z,39.81
2023-04-19T19:10:22.597Z,39.97
2023-04-19T19:12:54.862Z,39.62
2023-04-19T19:15:22.650Z,40.33
2023-04-19T19:17:54.321Z,40.13
2023-04-19T19:20:24.524Z,40.39
2023-04-19T19:22:55.006Z,40.24
2023-04-19T19:25:23.092Z,40.57
2023-04-19T19:30:27.829Z,42.07
2023-04-19T19:32:56.353Z,41.82
2023-04-19T19:35:27.116Z,40.84
2023-04-19T19:38:03.863Z,40.17
2023-04-19T19:40:32.837Z,40.09
2023-04-19T19:43:03.629Z,40.17
2023-04-19T19:45:31.700Z,40.02
2023-04-19T19:48:00.142Z,40.03
2023-04-19T19:53:02.120Z,39.74
2023-04-19T19:55:31.306Z,39.58
2023-04-19T20:03:02.459Z,39.04
2023-04-19T20:05:31.049Z,39.15
2023-04-19T20:08:13.438Z,38.72
2023-04-19T20:10:43.199Z,38.47
2023-04-19T20:13:13.173Z,38.74
2023-04-19T20:15:43.458Z,38.86
2023-04-19T20:18:13.335Z,39.12
2023-04-19T20:20:41.208Z,40.63
2023-04-19T20:23:09.681Z,39.92
2023-04-19T20:25:39.003Z,39.05
2023-04-19T20:28:07.282Z,39.10
2023-04-19T20:30:37.198Z,39.40
2023-04-19T20:33:06.550Z,39.39
2023-04-19T20:35:37.651Z,38.68
2023-04-19T20:38:08.016Z,38.88
2023-04-19T20:40:37.524Z,38.75
2023-04-19T20:43:06.562Z,38.52
2023-04-19T20:48:18.800Z,38.11
2023-04-19T20:50:46.820Z,37.62
2023-04-19T20:53:14.739Z,37.21
2023-04-19T20:55:46.375Z,36.91
2023-04-19T20:58:14.126Z,36.72
2023-04-19T21:00:42.026Z,36.67
2023-04-19T21:03:12.963Z,37.01
2023-04-19T21:05:41.117Z,36.55
2023-04-19T21:08:08.774Z,36.70
2023-04-19T21:10:36.677Z,36.35
2023-04-19T21:13:04.733Z,35.69
2023-04-19T21:15:32.629Z,36.01
2023-04-19T21:18:00.456Z,35.45
2023-04-19T21:20:28.403Z,35.94
2023-04-19T21:22:56.180Z,35.93
2023-04-19T21:25:24.002Z,35.50
2023-04-19T21:27:53.245Z,36.02
2023-04-19T21:30:23.275Z,35.50
2023-04-19T21:32:51.606Z,35.87
2023-04-19T21:35:20.919Z,35.60
2023-04-19T21:37:48.744Z,35.48
2023-04-19T21:40:16.629Z,35.25
2023-04-19T21:42:44.344Z,35.51
2023-04-19T21:45:12.208Z,35.61
2023-04-19T21:47:40.277Z,35.14
2023-04-19T21:50:08.886Z,35.11
2023-04-19T21:52:36.698Z,35.04
2023-04-19T21:55:05.227Z,35.11
2023-04-19T21:57:34.152Z,35.25
2023-04-19T22:00:01.928Z,35.19
2023-04-19T22:02:31.450Z,34.83
2023-04-19T22:05:00.641Z,34.72
2023-04-19T22:07:31.335Z,34.72
2023-04-19T22:10:01.497Z,34.40
2023-04-19T22:12:31.234Z,34.29
2023-04-19T22:14:59.178Z,34.29
2023-04-19T22:17:28.693Z,34.44
2023-04-19T22:19:57.397Z,34.21
2023-04-19T22:22:26.810Z,34.04
2023-04-19T22:24:57.969Z,33.90
2023-04-19T22:27:29.446Z,34.04
2023-04-19T22:30:01.502Z,33.89
2023-04-19T22:32:30.116Z,34.07
2023-04-19T22:34:58.416Z,33.71
2023-04-19T22:37:26.413Z,33.70
2023-04-19T22:39:54.229Z,33.64
2023-04-19T22:42:24.255Z,33.12
2023-04-19T22:44:52.080Z,33.65
2023-04-19T22:47:20.037Z,33.42
2023-04-19T22:49:48.511Z,32.91
2023-04-19T22:52:16.310Z,33.17
2023-04-19T22:54:44.176Z,32.98
2023-04-19T22:57:12.158Z,33.15
2023-04-19T22:59:40.091Z,32.94
2023-04-19T23:02:09.520Z,32.83
2023-04-19T23:04:38.365Z,32.76
2023-04-19T23:07:06.880Z,32.95
2023-04-19T23:09:34.778Z,33.12
2023-04-19T23:12:02.569Z,32.89
2023-04-19T23:14:30.397Z,32.40
2023-04-19T23:16:58.212Z,32.57
2023-04-19T23:19:26.508Z,32.69
2023-04-19T23:21:54.256Z,32.57
2023-04-19T23:24:22.318Z,32.39
2023-04-19T23:26:50.322Z,32.52
2023-04-19T23:29:18.468Z,32.75
2023-04-19T23:31:46.576Z,32.59
2023-04-19T23:34:14.563Z,32.64
2023-04-19T23:36:42.359Z,32.72
2023-04-19T23:39:10.031Z,32.56
2023-04-19T23:41:37.893Z,32.50
2023-04-19T23:44:06.242Z,32.68
2023-04-19T23:46:34.163Z,32.04
2023-04-19T23:49:02.093Z,32.59
2023-04-19T23:51:29.806Z,32.70
2023-04-19T23:53:57.784Z,32.56
2023-04-19T23:56:25.923Z,32.62
2023-04-19T23:58:53.642Z,32.48
